Time;durP1;ratioP1;P1;durP2;ratioP2;P2;SDS_P1;SDS_P2;PMS_P1;PMS_P2;Temp;Humidity;BMP_temperature;BMP_pressure;BME280_temperature;BME280_humidity;BME280_pressure;Samples;Min_cycle;Max_cycle;Signal;HPM_P1;HPM_P2
2022/10/23 00:00:57;;;;;;;12.57;4.80;;;;;;;-143.85;100.00;70650.75;5115360;28;20091;-90
2022/10/23 00:03:23;;;;;;;8.80;4.78;;;;;;;-143.85;100.00;70650.75;5115618;28;20019;-90
2022/10/23 00:05:48;;;;;;;6.97;3.90;;;;;;;-143.85;100.00;70650.75;5107139;28;20408;-89
2022/10/23 00:08:14;;;;;;;8.02;5.28;;;;;;;-143.85;100.00;70650.75;5096044;28;20020;-90
2022/10/23 00:10:41;;;;;;;10.73;4.90;;;;;;;-143.85;100.00;70650.75;5100996;28;20449;-89
2022/10/23 00:13:07;;;;;;;8.85;4.30;;;;;;;-143.85;100.00;70650.75;5102638;28;20421;-89
2022/10/23 00:15:34;;;;;;;9.43;4.95;;;;;;;-143.85;100.00;70650.75;5110082;28;20031;-90
2022/10/23 00:18:00;;;;;;;8.85;4.45;;;;;;;-143.85;100.00;70650.75;5102022;28;20027;-89
2022/10/23 00:20:25;;;;;;;10.38;4.85;;;;;;;-143.85;100.00;70650.75;5110299;28;20077;-89
2022/10/23 00:22:51;;;;;;;6.13;3.10;;;;;;;-143.85;100.00;70650.75;5114957;28;20125;-91
2022/10/23 00:25:17;;;;;;;6.30;3.92;;;;;;;-143.85;100.00;70650.75;5114832;28;20031;-90
2022/10/23 00:27:43;;;;;;;7.70;4.43;;;;;;;-143.85;100.00;70650.75;5116149;28;20089;-88
2022/10/23 00:30:09;;;;;;;9.75;3.53;;;;;;;-143.85;100.00;70650.75;5115858;28;20028;-89
2022/10/23 00:32:35;;;;;;;9.35;4.45;;;;;;;-143.85;100.00;70650.75;5110167;28;20024;-89
2022/10/23 00:35:00;;;;;;;7.65;4.95;;;;;;;-143.85;100.00;70650.75;5099203;28;20034;-89
2022/10/23 00:37:26;;;;;;;13.23;4.53;;;;;;;-143.85;100.00;70650.75;5114898;28;20164;-89
2022/10/23 00:39:51;;;;;;;7.72;4.55;;;;;;;-143.85;100.00;70650.75;5115513;28;20035;-90
2022/10/23 00:42:18;;;;;;;10.63;4.20;;;;;;;-143.85;100.00;70650.75;5115078;28;20028;-89
2022/10/23 00:44:43;;;;;;;5.80;2.97;;;;;;;-143.85;100.00;70650.75;5108050;28;20057;-89
2022/10/23 00:47:10;;;;;;;10.05;3.80;;;;;;;-143.85;100.00;70650.75;5094352;28;20063;-90
2022/10/23 00:49:35;;;;;;;7.18;3.70;;;;;;;-143.85;100.00;70650.75;5094270;28;20032;-90
2022/10/23 00:52:05;;;;;;;6.05;3.25;;;;;;;-143.85;100.00;70650.75;5101549;28;20050;-89
2022/10/23 00:54:35;;;;;;;7.05;4.38;;;;;;;-143.85;100.00;70650.75;5108321;28;20020;-89
2022/10/23 00:57:03;;;;;;;7.07;4.30;;;;;;;-143.85;100.00;70650.75;5105304;28;20023;-89
2022/10/23 00:59:30;;;;;;;4.70;3.10;;;;;;;-143.85;100.00;70650.75;5098186;28;20082;-89
2022/10/23 01:01:55;;;;;;;6.13;3.33;;;;;;;-143.85;100.00;70650.75;5101453;28;20028;-89
2022/10/23 01:04:22;;;;;;;7.32;3.75;;;;;;;-143.85;100.00;70650.75;5104024;28;20104;-89
2022/10/23 01:07:00;;;;;;;9.63;3.20;;;;;;;-143.85;100.00;70650.75;5114315;28;20502;-89
2022/10/23 01:09:35;;;;;;;8.25;3.42;;;;;;;-143.85;100.00;70650.75;5114127;28;20054;-89
2022/10/23 01:12:03;;;;;;;6.20;3.75;;;;;;;-143.85;100.00;70650.75;5111068;28;20039;-90
2022/10/23 01:15:03;;;;;;;10.07;5.30;;;;;;;-143.85;100.00;70650.75;5103517;28;20061;-90
2022/10/23 01:18:01;;;;;;;5.43;3.42;;;;;;;-143.85;100.00;70650.75;5114010;28;20032;-91
2022/10/23 01:20:44;;;;;;;6.18;3.97;;;;;;;-143.85;100.00;70650.75;5096391;28;20070;-91
2022/10/23 01:23:31;;;;;;;4.40;3.25;;;;;;;-143.85;100.00;70650.75;5115469;28;20028;-90
2022/10/23 01:26:21;;;;;;;5.50;3.27;;;;;;;-143.85;100.00;70650.75;5113716;28;20039;-90
2022/10/23 01:28:46;;;;;;;10.25;3.75;;;;;;;-143.85;100.00;70650.75;5113901;28;20277;-92
2022/10/23 01:31:17;;;;;;;10.68;3.55;;;;;;;-143.85;100.00;70650.75;5113821;28;20057;-91
2022/10/23 01:33:59;;;;;;;5.95;2.80;;;;;;;-143.85;100.00;70650.75;5099915;28;20032;-92
2022/10/23 01:36:28;;;;;;;6.72;4.03;;;;;;;-143.85;100.00;70650.75;5101795;28;20036;-92
2022/10/23 01:38:57;;;;;;;4.95;3.70;;;;;;;-143.85;100.00;70650.75;5113878;28;20436;-92
2022/10/23 01:41:30;;;;;;;6.68;4.07;;;;;;;-143.85;100.00;70650.75;5114612;28;20019;-91
2022/10/23 01:44:05;;;;;;;8.32;4.05;;;;;;;-143.85;100.00;70650.75;5110091;28;20078;-91
2022/10/23 01:46:34;;;;;;;6.82;3.33;;;;;;;-143.85;100.00;70650.75;5093340;28;20096;-89
2022/10/23 01:49:02;;;;;;;11.43;4.95;;;;;;;-143.85;100.00;70650.75;5112443;28;20050;-91
2022/10/23 01:51:30;;;;;;;8.93;3.05;;;;;;;-143.85;100.00;70650.75;5113975;28;20118;-90
2022/10/23 01:53:57;;;;;;;;;;;;;;;-143.85;100.00;70650.75;5110369;28;20493;-90
2022/10/23 01:56:28;;;;;;;7.95;3.90;;;;;;;-143.85;100.00;70650.75;5105087;28;19914;-90
2022/10/23 01:58:57;;;;;;;7.47;3.83;;;;;;;-143.85;100.00;70650.75;5092686;28;20397;-90
2022/10/23 02:01:26;;;;;;;9.02;4.53;;;;;;;-143.85;100.00;70650.75;5092609;28;20120;-92
2022/10/23 02:03:53;;;;;;;13.27;3.72;;;;;;;-143.85;100.00;70650.75;5102829;28;20153;-91
2022/10/23 02:06:18;;;;;;;11.93;3.42;;;;;;;-143.85;100.00;70650.75;5113333;28;20031;-92
2022/10/23 02:08:44;;;;;;;11.38;3.67;;;;;;;-143.85;100.00;70650.75;5113919;28;20391;-92
2022/10/23 02:11:14;;;;;;;8.60;3.72;;;;;;;-143.85;100.00;70650.75;5112919;28;20114;-92
2022/10/23 02:14:00;;;;;;;8.65;4.18;;;;;;;-143.85;100.00;70650.75;5112828;28;20039;-92
2022/10/23 02:16:35;;;;;;;6.25;3.38;;;;;;;-143.85;100.00;70650.75;5113724;28;20015;-91
2022/10/23 02:19:09;;;;;;;6.70;3.50;;;;;;;-143.85;100.00;70650.75;5107979;28;20028;-91
2022/10/23 02:21:54;;;;;;;11.50;3.47;;;;;;;-143.85;100.00;70650.75;5103996;28;20566;-91
2022/10/23 02:24:30;;;;;;;11.57;3.53;;;;;;;-143.85;100.00;70650.75;5092965;28;20066;-89
2022/10/23 02:26:59;;;;;;;14.25;3.92;;;;;;;-143.85;100.00;70650.75;5092833;28;20036;-88
2022/10/23 02:29:44;;;;;;;7.47;4.35;;;;;;;-143.85;100.00;70650.75;5098982;28;20023;-89
2022/10/23 02:32:13;;;;;;;7.43;4.22;;;;;;;-143.85;100.00;70650.75;5108641;28;20032;-88
2022/10/23 02:34:38;;;;;;;6.15;3.15;;;;;;;-143.85;100.00;70650.75;5098765;28;20030;-89
2022/10/23 02:37:04;;;;;;;5.30;3.50;;;;;;;-143.85;100.00;70650.75;5112622;28;20015;-89
2022/10/23 02:39:29;;;;;;;4.97;3.33;;;;;;;-143.85;100.00;70650.75;5098342;28;20025;-89
2022/10/23 02:42:16;;;;;;;4.95;3.15;;;;;;;-143.85;100.00;70650.75;5112459;28;20135;-89
2022/10/23 02:45:01;;;;;;;4.03;2.92;;;;;;;-143.85;100.00;70650.75;5092090;28;20024;-89
2022/10/23 02:47:41;;;;;;;7.32;3.75;;;;;;;-143.85;100.00;70650.75;5093541;28;20024;-88
2022/10/23 02:50:19;;;;;;;8.38;3.38;;;;;;;-143.85;100.00;70650.75;5092196;28;20032;-89
2022/10/23 02:52:51;;;;;;;5.82;3.55;;;;;;;-143.85;100.00;70650.75;5092178;28;20031;-90
2022/10/23 02:55:35;;;;;;;16.75;4.05;;;;;;;-143.85;100.00;70650.75;5092980;28;20032;-90
2022/10/23 02:58:16;;;;;;;7.97;3.65;;;;;;;-143.85;100.00;70650.75;5113440;28;20076;-90
2022/10/23 03:00:48;;;;;;;12.18;3.78;;;;;;;-143.85;100.00;70650.75;5100216;28;20059;-90
2022/10/23 03:03:19;;;;;;;5.25;3.63;;;;;;;-143.85;100.00;70650.75;5095404;28;20028;-90
2022/10/23 03:05:45;;;;;;;12.05;3.58;;;;;;;-143.85;100.00;70650.75;5112003;28;20078;-90
2022/10/23 03:08:12;;;;;;;5.40;2.95;;;;;;;-143.85;100.00;70650.75;5098136;28;20503;-89
2022/10/23 03:10:39;;;;;;;7.22;3.45;;;;;;;-143.85;100.00;70650.75;5097668;28;20031;-90
2022/10/23 03:13:04;;;;;;;16.70;3.53;;;;;;;-143.85;100.00;70650.75;5100225;28;20028;-89
2022/10/23 03:15:30;;;;;;;4.55;3.13;;;;;;;-143.85;100.00;70650.75;5092935;28;20028;-90
2022/10/23 03:17:55;;;;;;;8.35;3.35;;;;;;;-143.85;100.00;70650.75;5102079;28;20059;-90
2022/10/23 03:20:21;;;;;;;5.18;2.97;;;;;;;-143.85;100.00;70650.75;5112088;28;20043;-88
2022/10/23 03:22:46;;;;;;;9.18;3.75;;;;;;;-143.85;100.00;70650.75;5112335;28;20035;-88
2022/10/23 03:25:12;;;;;;;5.50;2.85;;;;;;;-143.85;100.00;70650.75;5112237;28;20475;-88
2022/10/23 03:27:37;;;;;;;6.63;2.38;;;;;;;-143.85;100.00;70650.75;5099169;28;20483;-92
2022/10/23 03:30:04;;;;;;;3.58;2.00;;;;;;;-143.85;100.00;70650.75;5102025;28;20024;-89
2022/10/23 03:32:30;;;;;;;6.20;2.33;;;;;;;-143.85;100.00;70650.75;5097855;28;20024;-90
2022/10/23 03:34:55;;;;;;;6.15;2.60;;;;;;;-143.85;100.00;70650.75;5105741;28;20027;-90
2022/10/23 03:37:21;;;;;;;7.85;2.47;;;;;;;-143.85;100.00;70650.75;5101247;28;20028;-89
2022/10/23 03:39:46;;;;;;;7.95;2.75;;;;;;;-143.85;100.00;70650.75;5095760;28;20020;-91
2022/10/23 03:42:12;;;;;;;4.45;2.00;;;;;;;-143.85;100.00;70650.75;5106323;28;20432;-90
2022/10/23 03:44:37;;;;;;;5.65;2.53;;;;;;;-143.85;100.00;70650.75;5095223;28;20028;-91
2022/10/23 03:47:02;;;;;;;3.90;2.30;;;;;;;-143.85;100.00;70650.75;5107064;28;20157;-90
2022/10/23 03:49:28;;;;;;;4.45;2.25;;;;;;;-143.85;100.00;70650.75;5115644;28;20023;-92
2022/10/23 03:51:53;;;;;;;6.30;2.78;;;;;;;-143.85;100.00;70650.75;5115649;28;20028;-91
2022/10/23 03:54:24;;;;;;;3.85;2.25;;;;;;;-143.85;100.00;70650.75;5126185;28;20072;-88
2022/10/23 03:56:50;;;;;;;4.03;2.20;;;;;;;-143.85;100.00;70650.75;5133943;28;20028;-88
2022/10/23 03:59:16;;;;;;;2.22;1.40;;;;;;;-143.85;100.00;70650.75;5116525;28;20475;-90
2022/10/23 04:01:41;;;;;;;2.50;2.03;;;;;;;-143.85;100.00;70650.75;5115292;28;20031;-90
2022/10/23 04:04:07;;;;;;;7.45;1.60;;;;;;;-143.85;100.00;70650.75;5111036;28;20039;-90
2022/10/23 04:06:32;;;;;;;4.22;1.63;;;;;;;-143.85;100.00;70650.75;5115209;28;20027;-90
2022/10/23 04:08:58;;;;;;;5.03;2.42;;;;;;;-143.85;100.00;70650.75;5101162;28;20038;-91
2022/10/23 04:11:23;;;;;;;3.88;1.92;;;;;;;-143.85;100.00;70650.75;5111718;28;20065;-90
2022/10/23 04:13:49;;;;;;;4.60;1.90;;;;;;;-143.85;100.00;70650.75;5110972;28;20508;-90
2022/10/23 04:16:14;;;;;;;3.83;1.85;;;;;;;-143.85;100.00;70650.75;5101568;28;20024;-90
2022/10/23 04:18:41;;;;;;;4.55;1.77;;;;;;;-143.85;100.00;70650.75;5110914;28;20501;-90
2022/10/23 04:21:06;;;;;;;2.75;1.77;;;;;;;-143.85;100.00;70650.75;5114796;28;20016;-91
2022/10/23 04:23:32;;;;;;;7.22;1.38;;;;;;;-143.85;100.00;70650.75;5114850;28;20118;-90
2022/10/23 04:25:58;;;;;;;2.92;2.17;;;;;;;-143.85;100.00;70650.75;5108861;28;20047;-90
2022/10/23 04:28:24;;;;;;;7.53;2.63;;;;;;;-143.85;100.00;70650.75;5094445;28;20030;-90
2022/10/23 04:30:50;;;;;;;2.55;1.83;;;;;;;-143.85;100.00;70650.75;5094417;28;20017;-90
2022/10/23 04:33:15;;;;;;;3.05;1.70;;;;;;;-143.85;100.00;70650.75;5114095;28;20030;-90
2022/10/23 04:35:40;;;;;;;16.27;2.83;;;;;;;-143.85;100.00;70650.75;5098016;28;20039;-91
2022/10/23 04:38:06;;;;;;;3.17;2.05;;;;;;;-143.85;100.00;70650.75;5104459;28;20024;-90
2022/10/23 04:40:31;;;;;;;5.20;1.90;;;;;;;-143.85;100.00;70650.75;5105152;28;20031;-90
2022/10/23 04:42:57;;;;;;;3.38;2.08;;;;;;;-143.85;100.00;70650.75;5094051;28;20031;-91
2022/10/23 04:45:22;;;;;;;11.52;2.67;;;;;;;-143.85;100.00;70650.75;5098838;28;20114;-91
2022/10/23 04:47:47;;;;;;;5.40;1.98;;;;;;;-143.85;100.00;70650.75;5094059;28;20055;-91
2022/10/23 04:50:14;;;;;;;4.47;1.80;;;;;;;-143.85;100.00;70650.75;5095224;28;20415;-92
2022/10/23 04:52:39;;;;;;;3.50;2.33;;;;;;;-143.85;100.00;70650.75;5110131;28;20031;-92
2022/10/23 04:55:06;;;;;;;2.90;1.80;;;;;;;-143.85;100.00;70650.75;5114588;28;20035;-91
2022/10/23 04:57:32;;;;;;;3.72;2.08;;;;;;;-143.85;100.00;70650.75;5100063;28;20028;-91
2022/10/23 04:59:57;;;;;;;4.90;1.75;;;;;;;-143.85;100.00;70650.75;5114255;28;20032;-91
2022/10/23 05:02:23;;;;;;;2.53;1.48;;;;;;;-143.85;100.00;70650.75;5114410;28;20023;-91
2022/10/23 05:04:49;;;;;;;6.82;2.20;;;;;;;-143.85;100.00;70650.75;5114092;28;20064;-91
2022/10/23 05:07:14;;;;;;;2.40;1.55;;;;;;;-143.85;100.00;70650.75;5108015;28;20020;-91
2022/10/23 05:09:40;;;;;;;4.68;1.58;;;;;;;-143.85;100.00;70650.75;5102334;28;20038;-90
2022/10/23 05:12:05;;;;;;;6.15;3.42;;;;;;;-143.85;100.00;70650.75;5093606;28;20024;-91
2022/10/23 05:14:31;;;;;;;3.47;2.30;;;;;;;-143.85;100.00;70650.75;5103264;28;20024;-91
2022/10/23 05:17:01;;;;;;;5.72;2.15;;;;;;;-143.85;100.00;70650.75;5113969;28;20027;-90
2022/10/23 05:19:32;;;;;;;3.40;1.98;;;;;;;-143.85;100.00;70650.75;5105699;28;20051;-90
2022/10/23 05:21:58;;;;;;;6.00;2.45;;;;;;;-143.85;100.00;70650.75;5108170;28;20490;-90
2022/10/23 05:24:24;;;;;;;11.93;2.83;;;;;;;-143.85;100.00;70650.75;5101093;28;20087;-90
2022/10/23 05:26:51;;;;;;;3.40;1.60;;;;;;;-143.85;100.00;70650.75;5114014;28;20184;-91
2022/10/23 05:29:18;;;;;;;13.43;2.23;;;;;;;-143.85;100.00;70650.75;5113885;28;20042;-90
2022/10/23 05:31:44;;;;;;;4.80;2.08;;;;;;;-143.85;100.00;70650.75;5115075;28;20036;-90
2022/10/23 05:34:11;;;;;;;4.15;1.98;;;;;;;-143.85;100.00;70650.75;5110475;28;20047;-90
2022/10/23 05:36:37;;;;;;;2.63;1.33;;;;;;;-143.85;100.00;70650.75;5095398;28;20484;-90
2022/10/23 05:39:03;;;;;;;6.03;1.80;;;;;;;-143.85;100.00;70650.75;5109390;28;20057;-90
2022/10/23 05:41:29;;;;;;;7.32;2.33;;;;;;;-143.85;100.00;70650.75;5113124;28;20081;-86
2022/10/23 05:43:54;;;;;;;3.08;2.13;;;;;;;-143.85;100.00;70650.75;5101208;28;20020;-87
2022/10/23 05:46:21;;;;;;;10.95;3.78;;;;;;;-143.85;100.00;70650.75;5106836;28;20032;-87
2022/10/23 05:48:51;;;;;;;9.20;4.83;;;;;;;-143.85;100.00;70650.75;5104426;28;20039;-86
2022/10/23 05:51:21;;;;;;;8.07;2.78;;;;;;;-143.85;100.00;70650.75;5110541;28;20016;-87
2022/10/23 05:53:51;;;;;;;8.15;3.60;;;;;;;-143.85;100.00;70650.75;5103174;28;20015;-87
2022/10/23 05:56:18;;;;;;;6.78;1.95;;;;;;;-143.85;100.00;70650.75;5095456;28;20032;-87
2022/10/23 05:58:44;;;;;;;15.48;1.85;;;;;;;-143.85;100.00;70650.75;5101840;28;20058;-89
2022/10/23 06:01:12;;;;;;;4.90;1.58;;;;;;;-143.85;100.00;70650.75;5111658;28;20042;-89
2022/10/23 06:03:38;;;;;;;9.02;2.75;;;;;;;-143.85;100.00;70650.75;5096475;28;20034;-90
2022/10/23 06:06:06;;;;;;;4.63;1.50;;;;;;;-143.85;100.00;70650.75;5102252;28;20107;-91
2022/10/23 06:08:32;;;;;;;2.40;1.70;;;;;;;-143.85;100.00;70650.75;5109023;28;20020;-88
2022/10/23 06:11:04;;;;;;;5.53;2.05;;;;;;;-143.85;100.00;70650.75;5112147;28;20036;-90
2022/10/23 06:13:30;;;;;;;3.72;1.85;;;;;;;-143.85;100.00;70650.75;5112510;28;20501;-91
2022/10/23 06:15:55;;;;;;;3.70;2.05;;;;;;;-143.85;100.00;70650.75;5112416;28;20031;-93
2022/10/23 06:18:21;;;;;;;2.70;1.30;;;;;;;-143.85;100.00;70650.75;5113722;28;20499;-92
2022/10/23 06:20:46;;;;;;;8.45;2.15;;;;;;;-143.85;100.00;70650.75;5113531;28;20042;-91
2022/10/23 06:23:11;;;;;;;5.03;1.88;;;;;;;-143.85;100.00;70650.75;5113399;28;20483;-87
2022/10/23 06:25:37;;;;;;;2.47;1.60;;;;;;;-143.85;100.00;70650.75;5111799;28;20100;-89
2022/10/23 06:28:02;;;;;;;4.15;2.42;;;;;;;-143.85;100.00;70650.75;5111993;28;20019;-89
2022/10/23 06:30:28;;;;;;;3.25;1.48;;;;;;;-143.85;100.00;70650.75;5111717;28;20089;-86
2022/10/23 06:32:53;;;;;;;3.65;2.15;;;;;;;-143.85;100.00;70650.75;5112363;28;20023;-87
2022/10/23 06:35:19;;;;;;;4.90;2.25;;;;;;;-143.85;100.00;70650.75;5108525;28;20498;-84
2022/10/23 06:37:44;;;;;;;3.83;1.88;;;;;;;-143.85;100.00;70650.75;5111731;28;20487;-86
2022/10/23 06:40:09;;;;;;;10.98;1.40;;;;;;;-143.85;100.00;70650.75;5111475;28;20035;-86
2022/10/23 06:42:35;;;;;;;3.45;1.98;;;;;;;-143.85;100.00;70650.75;5104616;28;20111;-85
2022/10/23 06:45:00;;;;;;;4.25;1.70;;;;;;;-143.85;100.00;70650.75;5108587;28;20024;-85
2022/10/23 06:47:26;;;;;;;9.68;2.85;;;;;;;-143.85;100.00;70650.75;5102044;28;20023;-85
2022/10/23 06:49:51;;;;;;;2.83;1.50;;;;;;;-143.85;100.00;70650.75;5105127;28;20028;-84
2022/10/23 06:52:17;;;;;;;3.42;2.10;;;;;;;-143.85;100.00;70650.75;5112113;28;20020;-85
2022/10/23 06:54:42;;;;;;;3.90;2.00;;;;;;;-143.85;100.00;70650.75;5112141;28;20119;-86
2022/10/23 06:57:07;;;;;;;6.13;2.55;;;;;;;-143.85;100.00;70650.75;5112051;28;20028;-86
2022/10/23 06:59:33;;;;;;;2.65;1.50;;;;;;;-143.85;100.00;70650.75;5112346;28;20031;-85
2022/10/23 07:01:58;;;;;;;3.17;2.13;;;;;;;-143.85;100.00;70650.75;5113362;28;20027;-84
2022/10/23 07:04:24;;;;;;;3.15;1.77;;;;;;;-143.85;100.00;70650.75;5102911;28;20438;-85
2022/10/23 07:06:49;;;;;;;2.63;1.35;;;;;;;-143.85;100.00;70650.75;5095203;28;20372;-83
2022/10/23 07:09:15;;;;;;;2.40;1.70;;;;;;;-143.85;100.00;70650.75;5113018;28;20036;-84
2022/10/23 07:11:40;;;;;;;4.07;2.38;;;;;;;-143.85;100.00;70650.75;5126582;28;20023;-85
2022/10/23 07:14:05;;;;;;;7.53;2.08;;;;;;;-143.85;100.00;70650.75;5117949;28;20483;-85
2022/10/23 07:16:31;;;;;;;2.30;1.65;;;;;;;-143.85;100.00;70650.75;5104543;28;20048;-84
2022/10/23 07:19:00;;;;;;;5.57;1.55;;;;;;;-143.85;100.00;70650.75;5115711;28;20035;-84
2022/10/23 07:21:31;;;;;;;3.03;1.55;;;;;;;-143.85;100.00;70650.75;5105416;28;20093;-85
2022/10/23 07:23:57;;;;;;;7.43;2.17;;;;;;;-143.85;100.00;70650.75;5095480;28;20028;-84
2022/10/23 07:26:23;;;;;;;1.67;1.40;;;;;;;-143.85;100.00;70650.75;5095304;28;20036;-85
2022/10/23 07:28:53;;;;;;;2.30;1.27;;;;;;;-143.85;100.00;70650.75;5095418;28;20123;-85
2022/10/23 07:31:22;;;;;;;14.23;2.20;;;;;;;-143.85;100.00;70650.75;5104014;28;20185;-85
2022/10/23 07:33:49;;;;;;;3.97;1.88;;;;;;;-143.85;100.00;70650.75;5115562;28;20038;-84
2022/10/23 07:36:14;;;;;;;3.85;1.50;;;;;;;-143.85;100.00;70650.75;5108707;28;20027;-86
2022/10/23 07:38:40;;;;;;;1.52;1.40;;;;;;;-143.85;100.00;70650.75;5104649;28;20032;-84
2022/10/23 07:41:06;;;;;;;1.30;1.20;;;;;;;-143.85;100.00;70650.75;5095128;28;20032;-85
2022/10/23 07:43:32;;;;;;;1.95;1.35;;;;;;;-143.85;100.00;70650.75;5095135;28;20031;-85
2022/10/23 07:45:58;;;;;;;3.40;0.90;;;;;;;-143.85;100.00;70650.75;5112186;28;20589;-87
2022/10/23 07:48:23;;;;;;;11.07;2.83;;;;;;;-143.85;100.00;70650.75;5115496;28;20239;-84
2022/10/23 07:50:50;;;;;;;6.10;1.50;;;;;;;-143.85;100.00;70650.75;5115729;28;20092;-86
2022/10/23 07:53:18;;;;;;;3.15;1.13;;;;;;;-143.85;100.00;70650.75;5115958;28;20031;-87
2022/10/23 07:55:52;;;;;;;1.48;1.08;;;;;;;-143.85;100.00;70650.75;5113199;28;20020;-86
2022/10/23 07:58:17;;;;;;;1.15;1.05;;;;;;;-143.85;100.00;70650.75;5102709;28;20406;-89
2022/10/23 08:00:44;;;;;;;1.15;0.70;;;;;;;-143.85;100.00;70650.75;5115793;28;20019;-90
2022/10/23 08:03:11;;;;;;;1.35;0.93;;;;;;;-143.85;100.00;70650.75;5109643;28;20028;-88
2022/10/23 08:05:37;;;;;;;1.15;1.05;;;;;;;-143.85;100.00;70650.75;5109010;28;20065;-91
2022/10/23 08:08:03;;;;;;;3.63;1.05;;;;;;;-143.85;100.00;70650.75;5114809;27;20061;-89
2022/10/23 08:10:28;;;;;;;3.67;1.20;;;;;;;-143.85;100.00;70650.75;5115229;28;20028;-88
2022/10/23 08:12:53;;;;;;;1.02;0.90;;;;;;;-143.85;100.00;70650.75;5115474;28;20494;-89
2022/10/23 08:15:19;;;;;;;2.53;0.98;;;;;;;-143.85;100.00;70650.75;5115231;28;20610;-90
2022/10/23 08:17:44;;;;;;;2.58;1.30;;;;;;;-143.85;100.00;70650.75;5115417;28;20106;-88
2022/10/23 08:20:12;;;;;;;1.20;0.98;;;;;;;-143.85;100.00;70650.75;5113819;28;20479;-89
2022/10/23 08:22:38;;;;;;;1.13;0.85;;;;;;;-143.85;100.00;70650.75;5115267;28;20219;-90
2022/10/23 08:25:04;;;;;;;2.85;0.93;;;;;;;-143.85;100.00;70650.75;5098504;28;20089;-87
2022/10/23 08:27:30;;;;;;;1.52;1.00;;;;;;;-143.85;100.00;70650.75;5114606;28;20027;-90
2022/10/23 08:29:55;;;;;;;1.70;0.77;;;;;;;-143.85;100.00;70650.75;5115318;28;20081;-87
2022/10/23 08:32:20;;;;;;;5.35;2.20;;;;;;;-143.85;100.00;70650.75;5114703;28;20106;-87
2022/10/23 08:34:46;;;;;;;1.45;0.90;;;;;;;-143.85;100.00;70650.75;5106128;28;20498;-86
2022/10/23 08:37:11;;;;;;;1.25;0.95;;;;;;;-143.85;100.00;70650.75;5109274;28;20034;-90
2022/10/23 08:39:37;;;;;;;0.57;0.45;;;;;;;-143.85;100.00;70650.75;5114629;28;20051;-87
2022/10/23 08:42:03;;;;;;;4.20;1.10;;;;;;;-143.85;100.00;70650.75;5102243;28;20036;-89
2022/10/23 08:44:39;;;;;;;1.95;0.82;;;;;;;-143.85;100.00;70650.75;5094206;28;20047;-86
2022/10/23 08:47:17;;;;;;;1.92;0.70;;;;;;;-143.85;100.00;70650.75;5094299;28;20067;-87
2022/10/23 08:49:45;;;;;;;0.90;0.75;;;;;;;-143.85;100.00;70650.75;5098634;28;20031;-88
2022/10/23 08:52:24;;;;;;;0.90;0.60;;;;;;;-143.85;100.00;70650.75;5105123;28;20050;-89
2022/10/23 08:55:14;;;;;;;4.38;1.30;;;;;;;-143.85;100.00;70650.75;5117256;28;20031;-89
2022/10/23 08:57:46;;;;;;;1.50;0.80;;;;;;;-143.85;100.00;70650.75;5113361;28;20402;-90
2022/10/23 09:00:16;;;;;;;2.45;0.45;;;;;;;-143.85;100.00;70650.75;5114844;28;20085;-88
2022/10/23 09:02:50;;;;;;;2.28;0.80;;;;;;;-143.85;100.00;70650.75;5101794;28;20672;-87
2022/10/23 09:05:48;;;;;;;2.03;1.20;;;;;;;-143.85;100.00;70650.75;5108004;28;20081;-89
2022/10/23 09:08:16;;;;;;;3.03;0.95;;;;;;;-143.85;100.00;70650.75;5113247;28;20023;-87
2022/10/23 09:10:50;;;;;;;1.13;0.98;;;;;;;-143.85;100.00;70650.75;5114304;28;20052;-89
2022/10/23 09:13:29;;;;;;;3.30;0.60;;;;;;;-143.85;100.00;70650.75;5114211;28;20027;-87
2022/10/23 09:16:06;;;;;;;2.75;0.55;;;;;;;-143.85;100.00;70650.75;5101002;28;20031;-90
2022/10/23 09:18:32;;;;;;;1.88;0.90;;;;;;;-143.85;100.00;70650.75;5115034;28;20031;-88
2022/10/23 09:20:58;;;;;;;3.13;1.75;;;;;;;-143.85;100.00;70650.75;5114086;28;20027;-92
2022/10/23 09:23:25;;;;;;;1.58;1.13;;;;;;;-143.85;100.00;70650.75;5114679;28;20034;-91
2022/10/23 09:25:55;;;;;;;;;;;;;;;-143.85;100.00;70650.75;5108910;28;20032;-91
2022/10/23 09:28:26;;;;;;;3.50;1.17;;;;;;;-143.85;100.00;70650.75;5102825;28;19912;-90
2022/10/23 09:30:52;;;;;;;1.30;1.20;;;;;;;-143.85;100.00;70650.75;5094571;28;20020;-91
2022/10/23 09:33:23;;;;;;;3.25;1.20;;;;;;;-143.85;100.00;70650.75;5096592;28;20533;-89
2022/10/23 09:35:57;;;;;;;2.28;1.25;;;;;;;-143.85;100.00;70650.75;5113634;28;20030;-91
2022/10/23 09:38:30;;;;;;;1.67;1.02;;;;;;;-143.85;100.00;70650.75;5114061;28;20043;-93
2022/10/23 09:41:20;;;;;;;2.88;1.05;;;;;;;-143.85;100.00;70650.75;5113686;28;20030;-91
2022/10/23 09:43:46;;;;;;;0.73;0.70;;;;;;;-143.85;100.00;70650.75;5113584;28;20081;-90
2022/10/23 09:46:12;;;;;;;5.45;1.05;;;;;;;-143.85;100.00;70650.75;5101676;28;20058;-89
2022/10/23 09:48:39;;;;;;;1.25;1.17;;;;;;;-143.85;100.00;70650.75;5112913;28;20237;-91
2022/10/23 09:51:17;;;;;;;5.00;0.97;;;;;;;-143.85;100.00;70650.75;5113348;28;20507;-90
2022/10/23 09:53:59;;;;;;;2.30;1.05;;;;;;;-143.85;100.00;70650.75;5113332;28;20031;-88
2022/10/23 09:56:29;;;;;;;1.85;1.33;;;;;;;-143.85;100.00;70650.75;5112892;28;20051;-88
2022/10/23 09:59:10;;;;;;;1.55;1.25;;;;;;;-143.85;100.00;70650.75;5113342;28;20070;-89
2022/10/23 10:01:46;;;;;;;1.35;0.90;;;;;;;-143.85;100.00;70650.75;5093068;28;20111;-93
2022/10/23 10:04:11;;;;;;;3.72;0.68;;;;;;;-143.85;100.00;70650.75;5105666;28;20051;-88
2022/10/23 10:06:36;;;;;;;2.85;1.40;;;;;;;-143.85;100.00;70650.75;5113353;28;20024;-91
2022/10/23 10:09:09;;;;;;;1.20;0.98;;;;;;;-143.85;100.00;70650.75;5113203;28;20115;-93
2022/10/23 10:11:47;;;;;;;4.72;1.35;;;;;;;-143.85;100.00;70650.75;5113124;28;20520;-92
2022/10/23 10:14:15;;;;;;;2.20;0.70;;;;;;;-143.85;100.00;70650.75;5093344;28;20031;-93
2022/10/23 10:16:53;;;;;;;0.82;0.73;;;;;;;-143.85;100.00;70650.75;5107999;28;20035;-92
2022/10/23 10:19:24;;;;;;;3.15;1.08;;;;;;;-143.85;100.00;70650.75;5107044;28;20522;-90
2022/10/23 10:22:11;;;;;;;0.52;0.50;;;;;;;-143.85;100.00;70650.75;5107143;28;20050;-93
2022/10/23 10:24:45;;;;;;;1.25;0.60;;;;;;;-143.85;100.00;70650.75;5092890;28;20118;-92
2022/10/23 10:27:19;;;;;;;2.08;0.63;;;;;;;-143.85;100.00;70650.75;5110057;28;20035;-90
2022/10/23 10:30:04;;;;;;;0.50;0.40;;;;;;;-143.85;100.00;70650.75;5113020;28;20055;-91
2022/10/23 10:32:47;;;;;;;0.65;0.55;;;;;;;-143.85;100.00;70650.75;5109363;28;20020;-89
2022/10/23 10:35:45;;;;;;;1.70;0.57;;;;;;;-143.85;100.00;70650.75;5104842;28;20051;-89
2022/10/23 10:38:23;;;;;;;1.65;0.70;;;;;;;-143.85;100.00;70650.75;5097576;28;20040;-91
2022/10/23 10:41:21;;;;;;;3.65;0.45;;;;;;;-143.85;100.00;70650.75;5092522;28;20020;-90
2022/10/23 10:43:59;;;;;;;0.57;0.50;;;;;;;-143.85;100.00;70650.75;5065612;28;20058;-91
2022/10/23 10:46:37;;;;;;;1.67;0.38;;;;;;;-143.85;100.00;70650.75;5100389;28;20099;-88
2022/10/23 10:49:09;;;;;;;;;;;;;;;-143.85;100.00;70650.75;5113690;28;20027;-90
2022/10/23 10:51:44;;;;;;;1.00;0.60;;;;;;;-143.85;100.00;70650.75;5105803;28;19919;-90
2022/10/23 10:54:33;;;;;;;0.63;0.63;;;;;;;-143.85;100.00;70650.75;5092204;28;20028;-90
2022/10/23 10:57:03;;;;;;;0.80;0.60;;;;;;;-143.85;100.00;70650.75;5112592;28;20513;-91
2022/10/23 10:59:41;;;;;;;0.85;0.43;;;;;;;-143.85;100.00;70650.75;5111391;28;20058;-90
2022/10/23 11:02:12;;;;;;;7.03;0.90;;;;;;;-143.85;100.00;70650.75;5102182;28;20107;-92
2022/10/23 11:05:10;;;;;;;0.68;0.30;;;;;;;-143.85;100.00;70650.75;5112246;28;20096;-88
2022/10/23 11:07:41;;;;;;;0.68;0.60;;;;;;;-143.85;100.00;70650.75;5112045;28;20042;-90
2022/10/23 11:10:16;;;;;;;3.22;1.02;;;;;;;-143.85;100.00;70650.75;5112576;28;20024;-88
2022/10/23 11:12:45;;;;;;;0.95;0.88;;;;;;;-143.85;100.00;70650.75;5106946;28;20126;-92
2022/10/23 11:15:18;;;;;;;0.80;0.70;;;;;;;-143.85;100.00;70650.75;5098985;28;20030;-88
2022/10/23 11:17:51;;;;;;;0.93;0.55;;;;;;;-143.85;100.00;70650.75;5112557;28;20036;-89
2022/10/23 11:20:38;;;;;;;0.75;0.60;;;;;;;-143.85;100.00;70650.75;5112751;28;20032;-88